createdAt,value
2022-11-23T00:00:25.201Z,4.10
2022-11-23T00:01:21.173Z,4.50
2022-11-23T00:02:16.363Z,6.10
2022-11-23T00:03:11.627Z,7.70
2022-11-23T00:04:07.856Z,7.80
2022-11-23T00:05:03.154Z,4.10
2022-11-23T00:05:59.099Z,3.90
2022-11-23T00:06:54.306Z,6.70
2022-11-23T00:07:49.619Z,4.80
2022-11-23T00:08:45.213Z,5.40
2022-11-23T00:09:40.370Z,6.70
2022-11-23T00:10:36.209Z,5.90
2022-11-23T00:11:31.275Z,5.40
2022-11-23T00:12:26.657Z,6.40
2022-11-23T00:13:22.344Z,7.00
2022-11-23T00:14:17.606Z,5.00
2022-11-23T00:15:12.891Z,8.00
2022-11-23T00:16:09.046Z,4.20
2022-11-23T00:17:04.180Z,7.00
2022-11-23T00:17:59.996Z,4.40
2022-11-23T00:18:55.044Z,3.70
2022-11-23T00:19:50.212Z,6.40
2022-11-23T00:20:46.180Z,3.10
2022-11-23T00:21:41.177Z,5.80
2022-11-23T00:22:36.959Z,6.60
2022-11-23T00:23:32.183Z,2.80
2022-11-23T00:24:27.697Z,6.30
2022-11-23T00:25:23.233Z,5.00
2022-11-23T00:26:18.517Z,4.30
2022-11-23T00:27:13.625Z,6.00
2022-11-23T00:28:09.948Z,7.40
2022-11-23T00:29:05.218Z,3.90
2022-11-23T00:30:01.338Z,4.40
2022-11-23T00:30:56.148Z,7.50
2022-11-23T00:31:51.267Z,4.70
2022-11-23T00:32:47.106Z,8.30
2022-11-23T00:33:42.205Z,5.80
2022-11-23T00:34:38.140Z,5.40
2022-11-23T00:35:34.225Z,5.40
2022-11-23T00:36:28.373Z,5.70
2022-11-23T00:37:24.189Z,9.20
2022-11-23T00:38:19.450Z,7.20
2022-11-23T00:39:14.654Z,5.00
2022-11-23T00:40:11.050Z,6.00
2022-11-23T00:41:06.166Z,7.50
2022-11-23T00:42:01.976Z,8.50
2022-11-23T00:42:57.039Z,4.80
2022-11-23T00:43:52.455Z,6.70
2022-11-23T00:44:48.141Z,4.90
2022-11-23T00:45:44.215Z,6.80
2022-11-23T00:46:39.174Z,7.00
2022-11-23T00:47:34.411Z,4.30
2022-11-23T00:48:29.779Z,4.70
2022-11-23T00:49:25.331Z,8.10
2022-11-23T00:50:20.456Z,7.90
2022-11-23T00:51:15.571Z,5.50
2022-11-23T00:52:11.897Z,8.60
2022-11-23T00:53:07.157Z,4.70
2022-11-23T00:54:02.977Z,5.50
2022-11-23T00:54:58.193Z,7.00
2022-11-23T00:55:53.312Z,9.20
2022-11-23T00:56:49.126Z,4.60
2022-11-23T00:57:44.274Z,5.70
2022-11-23T00:58:40.098Z,6.30
2022-11-23T00:59:35.202Z,5.80
2022-11-23T01:00:30.468Z,6.70
2022-11-23T01:01:25.620Z,5.30
2022-11-23T01:02:21.675Z,6.00
2022-11-23T01:03:17.306Z,5.80
2022-11-23T01:04:12.578Z,5.90
2022-11-23T01:05:08.373Z,4.70
2022-11-23T01:06:03.724Z,8.50
2022-11-23T01:06:58.829Z,6.20
2022-11-23T01:07:54.526Z,3.40
2022-11-23T01:08:49.677Z,7.70
2022-11-23T01:09:44.907Z,7.10
2022-11-23T01:10:41.321Z,7.30
2022-11-23T01:11:36.497Z,5.30
2022-11-23T01:12:32.288Z,7.80
2022-11-23T01:13:27.497Z,5.00
2022-11-23T01:14:22.668Z,5.70
2022-11-23T01:15:19.514Z,4.70
2022-11-23T01:16:13.700Z,6.90
2022-11-23T01:17:09.511Z,5.70
2022-11-23T01:18:04.567Z,5.30
2022-11-23T01:18:59.818Z,4.00
2022-11-23T01:19:54.961Z,4.50
2022-11-23T01:20:50.193Z,7.90
2022-11-23T01:21:45.727Z,5.80
2022-11-23T01:22:40.966Z,5.80
2022-11-23T01:23:36.286Z,5.10
2022-11-23T01:24:31.193Z,4.30
2022-11-23T01:25:27.778Z,8.40
2022-11-23T01:26:23.014Z,5.80
2022-11-23T01:27:18.123Z,6.60
2022-11-23T01:28:17.464Z,6.50
2022-11-23T01:29:12.542Z,4.90
2022-11-23T01:30:07.851Z,6.10
2022-11-23T01:31:02.903Z,8.50
2022-11-23T01:31:58.882Z,5.90
2022-11-23T01:32:53.003Z,4.10
2022-11-23T01:33:48.168Z,4.00
2022-11-23T01:34:43.120Z,6.20
2022-11-23T01:35:38.227Z,6.20
2022-11-23T01:36:33.285Z,3.70
2022-11-23T01:37:28.441Z,4.60
2022-11-23T01:38:23.512Z,5.40
2022-11-23T01:39:18.698Z,7.70
2022-11-23T01:40:13.699Z,6.00
2022-11-23T01:41:08.772Z,5.10
2022-11-23T01:42:03.845Z,6.70
2022-11-23T01:42:58.906Z,5.50
2022-11-23T01:43:54.940Z,5.50
2022-11-23T01:44:49.210Z,5.80
2022-11-23T01:45:44.142Z,4.30
2022-11-23T01:46:39.293Z,7.20
2022-11-23T01:47:34.346Z,6.30
2022-11-23T01:48:29.407Z,4.60
2022-11-23T01:49:24.480Z,4.50
2022-11-23T01:50:19.633Z,5.10
2022-11-23T01:51:14.635Z,4.50
2022-11-23T01:52:12.837Z,6.40
2022-11-23T01:53:07.917Z,6.10
2022-11-23T01:54:03.032Z,4.20
2022-11-23T01:54:58.188Z,10.00
2022-11-23T01:55:53.328Z,6.00
2022-11-23T01:56:48.389Z,7.00
2022-11-23T01:57:43.472Z,4.40
2022-11-23T01:58:38.459Z,4.70
2022-11-23T01:59:34.150Z,7.20
2022-11-23T02:00:28.747Z,4.40
2022-11-23T02:01:23.894Z,7.40
2022-11-23T02:02:18.809Z,6.80
2022-11-23T02:03:13.945Z,6.90
2022-11-23T02:04:13.326Z,7.70
2022-11-23T02:05:08.980Z,5.70
2022-11-23T02:06:03.583Z,7.20
2022-11-23T02:06:58.561Z,7.40
2022-11-23T02:07:53.582Z,8.20
2022-11-23T02:08:48.673Z,4.40
2022-11-23T02:09:43.653Z,7.10
2022-11-23T02:10:39.041Z,7.90
2022-11-23T02:11:33.838Z,7.90
2022-11-23T02:12:28.974Z,6.80
2022-11-23T02:13:23.943Z,7.50
2022-11-23T02:14:23.205Z,6.90
2022-11-23T02:15:14.124Z,6.60
2022-11-23T02:16:14.479Z,9.30
2022-11-23T02:17:08.642Z,6.50
2022-11-23T02:18:03.762Z,7.90
2022-11-23T02:18:58.753Z,8.10
2022-11-23T02:19:53.879Z,7.90
2022-11-23T02:20:49.023Z,4.90
2022-11-23T02:21:43.988Z,8.20
2022-11-23T02:22:39.102Z,7.50
2022-11-23T02:23:34.107Z,6.60
2022-11-23T02:24:29.179Z,6.90
2022-11-23T02:25:24.237Z,5.80
2022-11-23T02:26:19.230Z,5.90
2022-11-23T02:27:14.668Z,6.00
2022-11-23T02:28:09.736Z,6.70
2022-11-23T02:29:05.215Z,6.30
2022-11-23T02:30:00.913Z,4.80
2022-11-23T02:30:56.077Z,6.90
2022-11-23T02:31:51.911Z,5.70
2022-11-23T02:32:47.156Z,9.10
2022-11-23T02:33:42.434Z,6.90
2022-11-23T02:34:38.105Z,8.30
2022-11-23T02:35:33.344Z,6.60
2022-11-23T02:36:28.796Z,12.10
2022-11-23T02:37:25.301Z,5.90
2022-11-23T02:38:20.516Z,7.30
2022-11-23T02:39:15.682Z,13.10
2022-11-23T02:40:11.504Z,6.20
2022-11-23T02:41:06.773Z,5.60
2022-11-23T02:42:02.723Z,8.80
2022-11-23T02:42:57.656Z,6.00
2022-11-23T02:43:52.800Z,7.60
2022-11-23T02:44:48.738Z,6.90
2022-11-23T02:45:43.861Z,5.90
2022-11-23T02:46:39.093Z,6.50
2022-11-23T02:47:35.345Z,7.50
2022-11-23T02:48:30.459Z,7.70
2022-11-23T02:49:26.264Z,6.80
2022-11-23T02:50:21.372Z,8.60
2022-11-23T02:51:16.466Z,8.80
2022-11-23T02:52:11.812Z,8.90
2022-11-23T02:53:06.979Z,5.30
2022-11-23T02:54:01.978Z,4.80
2022-11-23T02:54:56.948Z,7.70
2022-11-23T02:55:52.227Z,5.30
2022-11-23T02:56:47.214Z,7.70
2022-11-23T02:57:42.316Z,8.80
2022-11-23T02:58:37.436Z,7.70
2022-11-23T02:59:37.726Z,7.40
2022-11-23T03:00:32.870Z,6.00
2022-11-23T03:01:28.001Z,7.10
2022-11-23T03:02:23.102Z,6.20
2022-11-23T03:03:18.222Z,6.10
2022-11-23T03:04:13.279Z,6.70
2022-11-23T03:05:08.438Z,6.90
2022-11-23T03:06:03.502Z,8.40
2022-11-23T03:06:58.639Z,4.70
2022-11-23T03:07:53.780Z,5.50
2022-11-23T03:08:48.993Z,6.10
2022-11-23T03:09:43.815Z,7.00
2022-11-23T03:10:38.986Z,6.00
2022-11-23T03:11:34.087Z,7.90
2022-11-23T03:12:29.496Z,5.20
2022-11-23T03:13:24.159Z,6.50
2022-11-23T03:14:19.298Z,7.50
2022-11-23T03:15:14.376Z,7.90
2022-11-23T03:16:09.507Z,6.30
2022-11-23T03:17:04.574Z,6.10
2022-11-23T03:18:00.329Z,5.80
2022-11-23T03:18:58.783Z,7.90
2022-11-23T03:19:53.893Z,9.50
2022-11-23T03:20:48.969Z,8.70
2022-11-23T03:21:44.080Z,9.50
2022-11-23T03:22:40.625Z,7.10
2022-11-23T03:23:35.025Z,10.20
2022-11-23T03:24:30.184Z,10.40
2022-11-23T03:25:25.461Z,10.90
2022-11-23T03:26:20.748Z,9.90
2022-11-23T03:27:15.889Z,10.10
2022-11-23T03:28:11.019Z,13.20
2022-11-23T03:29:06.224Z,9.30
2022-11-23T03:30:01.314Z,10.80
2022-11-23T03:30:56.566Z,8.40
2022-11-23T03:31:51.685Z,12.20
2022-11-23T03:32:47.440Z,13.10
2022-11-23T03:33:42.294Z,10.40
2022-11-23T03:34:37.474Z,12.60
2022-11-23T03:35:32.627Z,11.30
2022-11-23T03:36:27.797Z,11.60
2022-11-23T03:37:22.954Z,11.10
2022-11-23T03:38:18.115Z,10.20
2022-11-23T03:39:13.291Z,10.00
2022-11-23T03:40:08.434Z,11.10
2022-11-23T03:41:03.440Z,11.60
2022-11-23T03:41:58.529Z,10.10
2022-11-23T03:42:53.439Z,12.70
2022-11-23T03:43:48.465Z,11.90
2022-11-23T03:44:43.449Z,11.30
2022-11-23T03:45:38.650Z,9.50
2022-11-23T03:46:33.735Z,11.70
2022-11-23T03:47:29.011Z,9.50
2022-11-23T03:48:23.970Z,9.90
2022-11-23T03:49:19.120Z,9.20
2022-11-23T03:50:14.219Z,14.00
2022-11-23T03:51:09.259Z,13.20
2022-11-23T03:52:04.270Z,14.00
2022-11-23T03:52:59.591Z,9.50
2022-11-23T03:53:54.415Z,12.30
2022-11-23T03:54:49.565Z,12.70
2022-11-23T03:55:44.588Z,11.20
2022-11-23T03:56:39.610Z,12.60
2022-11-23T03:57:34.612Z,11.70
2022-11-23T03:58:29.709Z,11.10
2022-11-23T03:59:24.707Z,11.00
2022-11-23T04:00:20.018Z,12.40
2022-11-23T04:01:15.120Z,13.00
2022-11-23T04:02:10.254Z,13.10
2022-11-23T04:03:05.384Z,9.30
2022-11-23T04:04:00.829Z,10.10
2022-11-23T04:04:55.815Z,9.00
2022-11-23T04:05:51.779Z,9.80
2022-11-23T04:06:46.893Z,10.30
2022-11-23T04:07:42.353Z,7.30
2022-11-23T04:08:38.379Z,9.20
2022-11-23T04:09:33.762Z,13.80
2022-11-23T04:10:29.342Z,9.80
2022-11-23T04:11:24.597Z,10.80
2022-11-23T04:12:19.924Z,10.10
2022-11-23T04:13:15.678Z,8.40
2022-11-23T04:14:10.811Z,11.20
2022-11-23T04:15:06.638Z,12.10
2022-11-23T04:16:01.787Z,8.90
2022-11-23T04:16:57.187Z,10.60
2022-11-23T04:17:52.903Z,7.00
2022-11-23T04:18:48.220Z,9.30
2022-11-23T04:19:43.318Z,7.30
2022-11-23T04:20:39.788Z,8.10
2022-11-23T04:21:34.938Z,10.30
2022-11-23T04:22:30.788Z,8.10
2022-11-23T04:23:26.163Z,9.30
2022-11-23T04:24:21.174Z,7.40
2022-11-23T04:25:16.958Z,8.40
2022-11-23T04:26:12.236Z,9.10
2022-11-23T04:27:08.063Z,6.20
2022-11-23T04:28:03.223Z,9.10
2022-11-23T04:28:58.464Z,7.80
2022-11-23T04:29:54.468Z,10.50
2022-11-23T04:30:49.601Z,7.60
2022-11-23T04:31:44.841Z,7.40
2022-11-23T04:32:41.057Z,13.00
2022-11-23T04:33:36.427Z,7.50
2022-11-23T04:34:32.084Z,8.40
2022-11-23T04:35:27.207Z,11.30
2022-11-23T04:36:22.373Z,9.00
2022-11-23T04:37:18.255Z,6.30
2022-11-23T04:38:13.448Z,10.30
2022-11-23T04:39:09.346Z,10.70
2022-11-23T04:40:04.338Z,9.50
2022-11-23T04:40:59.595Z,6.10
2022-11-23T04:41:55.395Z,4.70
2022-11-23T04:42:50.706Z,7.50
2022-11-23T04:43:45.902Z,7.60
2022-11-23T04:44:42.260Z,6.70
2022-11-23T04:45:37.394Z,8.70
2022-11-23T04:46:33.272Z,10.50
2022-11-23T04:47:28.401Z,9.30
2022-11-23T04:48:23.855Z,9.10
2022-11-23T04:49:19.398Z,9.00
2022-11-23T04:50:14.692Z,9.70
2022-11-23T04:51:10.470Z,8.10
2022-11-23T04:52:05.725Z,7.70
2022-11-23T04:53:01.050Z,9.90
2022-11-23T04:53:56.756Z,13.30
2022-11-23T04:54:51.908Z,8.60
2022-11-23T04:55:47.055Z,7.00
2022-11-23T04:56:43.430Z,10.60
2022-11-23T04:57:38.609Z,9.90
2022-11-23T04:58:34.858Z,10.30
2022-11-23T04:59:29.984Z,9.40
2022-11-23T05:00:24.966Z,13.50
2022-11-23T05:01:20.859Z,9.70
2022-11-23T05:02:16.859Z,7.70
2022-11-23T05:03:11.845Z,12.40
2022-11-23T05:04:06.989Z,11.30
2022-11-23T05:05:02.343Z,12.60
2022-11-23T05:05:57.485Z,11.00
2022-11-23T05:06:53.383Z,8.20
2022-11-23T05:07:48.531Z,8.60
2022-11-23T05:08:43.804Z,9.10
2022-11-23T05:09:39.083Z,8.90
2022-11-23T05:10:34.770Z,8.20
2022-11-23T05:11:30.032Z,14.60
2022-11-23T05:12:25.722Z,8.90
2022-11-23T05:13:20.829Z,12.60
2022-11-23T05:14:16.163Z,10.80
2022-11-23T05:15:11.846Z,9.40
2022-11-23T05:16:07.001Z,9.50
2022-11-23T05:17:02.149Z,9.80
2022-11-23T05:17:59.244Z,12.50
2022-11-23T05:18:53.681Z,9.00
2022-11-23T05:19:49.708Z,10.90
2022-11-23T05:20:44.875Z,11.40
2022-11-23T05:21:40.089Z,10.40
2022-11-23T05:22:35.248Z,13.80
2022-11-23T05:23:30.551Z,11.40
2022-11-23T05:24:25.585Z,13.20
2022-11-23T05:25:20.671Z,12.50
2022-11-23T05:26:15.849Z,12.60
2022-11-23T05:27:10.924Z,8.90
2022-11-23T05:28:23.355Z,12.40
2022-11-23T05:29:02.672Z,12.80
2022-11-23T05:29:56.681Z,9.50
2022-11-23T05:30:52.041Z,12.10
2022-11-23T05:31:51.234Z,8.70
2022-11-23T05:32:46.289Z,14.00
2022-11-23T05:33:41.433Z,7.10
2022-11-23T05:34:36.620Z,13.10
2022-11-23T05:35:31.722Z,13.10
2022-11-23T05:36:27.334Z,8.00
2022-11-23T05:37:22.854Z,8.00
2022-11-23T05:38:18.099Z,11.60
2022-11-23T05:39:13.288Z,8.80
2022-11-23T05:40:08.547Z,10.40
2022-11-23T05:41:03.552Z,8.80
2022-11-23T05:41:58.792Z,10.90
2022-11-23T05:42:53.669Z,8.60
2022-11-23T05:43:49.375Z,9.10
2022-11-23T05:44:43.819Z,7.30
2022-11-23T05:45:38.804Z,8.70
2022-11-23T05:46:33.817Z,9.00
2022-11-23T05:47:28.835Z,9.50
2022-11-23T05:48:23.883Z,9.80
2022-11-23T05:49:18.936Z,12.70
2022-11-23T05:50:13.899Z,8.10
2022-11-23T05:51:09.018Z,9.00
2022-11-23T05:52:04.234Z,10.60
2022-11-23T05:52:59.304Z,10.50
2022-11-23T05:53:54.385Z,9.30
2022-11-23T05:54:49.496Z,9.60
2022-11-23T05:55:44.445Z,9.90
2022-11-23T05:56:42.532Z,12.80
2022-11-23T05:57:37.741Z,5.80
2022-11-23T05:58:32.696Z,8.10
2022-11-23T05:59:27.699Z,11.20
2022-11-23T06:00:22.764Z,11.30
2022-11-23T06:01:17.826Z,12.50
2022-11-23T06:02:12.905Z,12.10
2022-11-23T06:03:07.785Z,11.60
2022-11-23T06:04:02.883Z,9.00
2022-11-23T06:04:57.896Z,10.80
2022-11-23T06:05:52.940Z,12.70
2022-11-23T06:06:48.062Z,9.60
2022-11-23T06:07:43.107Z,9.80
2022-11-23T06:08:38.004Z,9.70
2022-11-23T06:09:33.223Z,10.10
2022-11-23T06:10:28.159Z,11.50
2022-11-23T06:11:24.976Z,7.20
2022-11-23T06:12:20.101Z,8.30
2022-11-23T06:13:15.280Z,11.70
2022-11-23T06:14:14.201Z,9.90
2022-11-23T06:15:05.595Z,8.70
2022-11-23T06:16:00.593Z,11.60
2022-11-23T06:16:55.749Z,11.80
2022-11-23T06:17:50.695Z,8.00
2022-11-23T06:18:45.718Z,10.80
2022-11-23T06:19:40.910Z,9.50
2022-11-23T06:20:35.963Z,7.10
2022-11-23T06:21:31.101Z,10.60
2022-11-23T06:22:26.115Z,12.20
2022-11-23T06:23:21.232Z,12.10
2022-11-23T06:24:16.378Z,14.80
2022-11-23T06:25:12.201Z,11.00
2022-11-23T06:26:07.422Z,8.10
2022-11-23T06:27:03.246Z,10.80
2022-11-23T06:27:58.492Z,9.40
2022-11-23T06:28:53.843Z,9.50
2022-11-23T06:29:49.575Z,7.20
2022-11-23T06:30:44.849Z,8.80
2022-11-23T06:31:40.169Z,15.70
2022-11-23T06:32:36.482Z,12.60
2022-11-23T06:33:31.685Z,8.00
2022-11-23T06:34:27.464Z,10.30
2022-11-23T06:35:22.742Z,12.60
2022-11-23T06:36:18.062Z,11.60
2022-11-23T06:37:13.802Z,11.30
2022-11-23T06:38:09.168Z,12.20
2022-11-23T06:39:05.085Z,18.70
2022-11-23T06:40:00.276Z,10.20
2022-11-23T06:40:55.700Z,12.80
2022-11-23T06:41:51.570Z,14.60
2022-11-23T06:42:46.884Z,9.10
2022-11-23T06:43:42.319Z,11.90
2022-11-23T06:44:38.503Z,10.70
2022-11-23T06:45:33.862Z,11.70
2022-11-23T06:46:29.631Z,10.90
2022-11-23T06:47:26.614Z,13.40
2022-11-23T06:48:20.502Z,11.30
2022-11-23T06:49:15.578Z,9.80
2022-11-23T06:50:10.761Z,14.70
2022-11-23T06:51:09.153Z,10.40
2022-11-23T06:52:04.528Z,11.50
2022-11-23T06:52:59.637Z,14.30
2022-11-23T06:53:54.766Z,15.80
2022-11-23T06:54:49.860Z,11.60
2022-11-23T06:55:44.948Z,13.30
2022-11-23T06:56:40.055Z,12.20
2022-11-23T06:57:35.067Z,8.90
2022-11-23T06:58:30.452Z,9.90
2022-11-23T06:59:25.205Z,11.70
2022-11-23T07:00:20.303Z,10.30
2022-11-23T07:01:15.486Z,11.70
2022-11-23T07:02:10.447Z,14.70
2022-11-23T07:03:05.663Z,10.70
2022-11-23T07:04:00.804Z,14.60
2022-11-23T07:04:55.780Z,12.90
2022-11-23T07:05:54.650Z,11.70
2022-11-23T07:06:49.675Z,9.20
2022-11-23T07:07:44.762Z,8.30
2022-11-23T07:08:39.749Z,8.40
2022-11-23T07:09:35.135Z,7.70
2022-11-23T07:10:29.785Z,11.90
2022-11-23T07:11:24.898Z,13.10
2022-11-23T07:12:19.918Z,11.80
2022-11-23T07:13:15.008Z,14.30
2022-11-23T07:14:10.134Z,13.80
2022-11-23T07:15:09.039Z,13.50
2022-11-23T07:16:04.361Z,12.70
2022-11-23T07:16:59.761Z,11.30
2022-11-23T07:17:55.133Z,15.00
2022-11-23T07:18:51.646Z,15.90
2022-11-23T07:19:47.016Z,12.90
2022-11-23T07:20:42.426Z,15.60
2022-11-23T07:21:41.317Z,10.70
2022-11-23T07:22:36.575Z,14.90
2022-11-23T07:23:32.040Z,22.80
2022-11-23T07:24:27.441Z,14.20
2022-11-23T07:25:22.560Z,13.60
2022-11-23T07:26:17.580Z,16.70
2022-11-23T07:27:12.618Z,18.20
2022-11-23T07:28:12.351Z,18.20
2022-11-23T07:29:07.802Z,16.70
2022-11-23T07:30:03.332Z,23.20
2022-11-23T07:30:58.940Z,20.90
2022-11-23T07:31:54.356Z,17.70
2022-11-23T07:32:49.879Z,10.20
2022-11-23T07:33:46.246Z,11.50
2022-11-23T07:34:41.740Z,10.30
2022-11-23T07:35:37.436Z,11.40
2022-11-23T07:36:32.845Z,12.20
2022-11-23T07:37:28.428Z,10.70
2022-11-23T07:38:23.983Z,7.40
2022-11-23T07:39:19.457Z,8.40
2022-11-23T07:40:15.167Z,8.00
2022-11-23T07:41:10.606Z,10.80
2022-11-23T07:42:31.000Z,13.90
2022-11-23T07:43:02.758Z,9.30
2022-11-23T07:43:57.186Z,15.60
2022-11-23T07:44:52.734Z,10.00
2022-11-23T07:45:48.858Z,8.70
2022-11-23T07:46:44.263Z,8.40
2022-11-23T07:47:40.122Z,9.40
2022-11-23T07:48:36.668Z,9.70
2022-11-23T07:49:31.352Z,9.00
2022-11-23T07:50:27.643Z,8.40
2022-11-23T07:51:23.012Z,8.80
2022-11-23T07:52:18.740Z,11.00
2022-11-23T07:53:14.219Z,10.20
2022-11-23T07:54:09.772Z,11.30
2022-11-23T07:55:05.467Z,8.40
2022-11-23T07:56:00.865Z,11.90
2022-11-23T07:56:56.337Z,10.30
2022-11-23T07:57:52.648Z,17.00
2022-11-23T07:58:48.128Z,16.10
2022-11-23T07:59:43.970Z,8.80
2022-11-23T08:00:39.372Z,10.10
2022-11-23T08:01:34.821Z,10.60
2022-11-23T08:02:30.658Z,11.90
2022-11-23T08:03:28.554Z,9.40
2022-11-23T08:04:22.114Z,10.20
2022-11-23T08:05:17.328Z,12.20
2022-11-23T08:06:12.745Z,10.50
2022-11-23T08:07:08.718Z,10.90
2022-11-23T08:08:03.909Z,12.90
2022-11-23T08:08:59.333Z,16.90
2022-11-23T08:09:55.612Z,12.70
2022-11-23T08:10:53.853Z,9.50
2022-11-23T08:11:46.895Z,9.90
2022-11-23T08:12:42.349Z,7.90
2022-11-23T08:13:37.715Z,9.20
2022-11-23T08:14:33.895Z,11.90
2022-11-23T08:15:29.148Z,12.10
2022-11-23T08:16:25.099Z,9.00
2022-11-23T08:17:20.220Z,10.10
2022-11-23T08:18:15.665Z,7.50
2022-11-23T08:19:11.336Z,7.20
2022-11-23T08:20:06.742Z,9.60
2022-11-23T08:21:02.255Z,7.70
2022-11-23T08:21:58.497Z,7.00
2022-11-23T08:22:53.929Z,10.60
2022-11-23T08:23:49.644Z,7.60
2022-11-23T08:24:45.009Z,7.20
2022-11-23T08:25:40.625Z,5.50
2022-11-23T08:26:36.427Z,7.90
2022-11-23T08:27:31.603Z,6.00
2022-11-23T08:28:27.044Z,7.10
2022-11-23T08:29:22.506Z,7.50
2022-11-23T08:30:18.209Z,7.00
2022-11-23T08:31:13.759Z,8.50
2022-11-23T08:32:09.051Z,6.60
2022-11-23T08:33:05.623Z,7.10
2022-11-23T08:34:03.435Z,7.40
2022-11-23T08:34:56.864Z,4.70
2022-11-23T08:35:52.348Z,8.30
2022-11-23T08:36:47.794Z,6.20
2022-11-23T08:37:43.531Z,4.80
2022-11-23T08:38:38.989Z,7.50
2022-11-23T08:39:34.820Z,5.90
2022-11-23T08:40:30.159Z,8.30
2022-11-23T08:41:25.637Z,7.90
2022-11-23T08:42:21.486Z,9.90
2022-11-23T08:43:16.844Z,7.50
2022-11-23T08:44:12.292Z,7.10
2022-11-23T08:45:08.586Z,4.80
2022-11-23T08:46:09.302Z,9.30
2022-11-23T08:47:00.475Z,4.00
2022-11-23T08:47:54.914Z,5.70
2022-11-23T08:48:50.343Z,6.90
2022-11-23T08:49:45.403Z,7.80
2022-11-23T08:50:40.467Z,6.40
2022-11-23T08:51:35.531Z,5.30
2022-11-23T08:52:30.587Z,6.80
2022-11-23T08:53:25.645Z,6.20
2022-11-23T08:54:20.754Z,4.00
2022-11-23T08:55:15.777Z,5.00
2022-11-23T08:56:10.830Z,3.10
2022-11-23T08:57:07.597Z,3.40
2022-11-23T08:58:02.600Z,4.10
2022-11-23T08:58:57.671Z,3.30
2022-11-23T08:59:52.710Z,4.80
2022-11-23T09:00:47.773Z,7.70
2022-11-23T09:01:43.046Z,3.20
2022-11-23T09:02:37.955Z,3.70
2022-11-23T09:03:32.972Z,4.10
2022-11-23T09:04:28.029Z,3.60
2022-11-23T09:05:23.053Z,4.70
2022-11-23T09:06:18.429Z,6.40
2022-11-23T09:07:14.115Z,4.60
2022-11-23T09:08:09.746Z,4.60
2022-11-23T09:09:05.248Z,5.30
2022-11-23T09:10:00.709Z,4.20
2022-11-23T09:10:56.459Z,5.90
2022-11-23T09:11:52.041Z,4.30
2022-11-23T09:12:47.960Z,3.90
2022-11-23T09:13:43.179Z,3.40
2022-11-23T09:14:38.620Z,3.40
2022-11-23T09:15:34.413Z,3.60
2022-11-23T09:16:33.932Z,3.60
2022-11-23T09:17:25.370Z,4.30
2022-11-23T09:18:20.683Z,3.20
2022-11-23T09:19:16.453Z,2.70
2022-11-23T09:20:11.915Z,2.90
2022-11-23T09:21:07.416Z,5.30
2022-11-23T09:22:04.106Z,5.50
2022-11-23T09:22:59.618Z,3.20
2022-11-23T09:23:55.248Z,4.70
2022-11-23T09:24:50.771Z,3.00
2022-11-23T09:25:46.141Z,3.40
2022-11-23T09:26:42.088Z,4.40
2022-11-23T09:27:37.555Z,3.90
2022-11-23T09:28:33.310Z,5.20
2022-11-23T09:29:28.795Z,4.60
2022-11-23T09:30:24.256Z,4.90
2022-11-23T09:31:20.131Z,5.10
2022-11-23T09:32:15.582Z,4.20
2022-11-23T09:33:11.076Z,3.50
2022-11-23T09:34:07.405Z,3.30
2022-11-23T09:35:02.845Z,5.80
2022-11-23T09:35:58.831Z,4.00
2022-11-23T09:36:54.199Z,4.00
2022-11-23T09:37:49.669Z,3.60
2022-11-23T09:38:56.099Z,3.50
2022-11-23T09:39:41.836Z,3.50
2022-11-23T09:40:36.628Z,3.50
2022-11-23T09:41:32.060Z,3.50
2022-11-23T09:42:27.473Z,3.00
2022-11-23T09:43:23.614Z,2.80
2022-11-23T09:44:18.922Z,3.00
2022-11-23T09:45:14.429Z,3.60
2022-11-23T09:46:10.704Z,2.20
2022-11-23T09:47:06.148Z,3.90
2022-11-23T09:48:01.955Z,3.80
2022-11-23T09:48:57.410Z,4.50
2022-11-23T09:49:52.871Z,2.70
2022-11-23T09:50:48.802Z,3.70
2022-11-23T09:51:44.227Z,2.80
2022-11-23T09:52:40.084Z,4.80
2022-11-23T09:53:35.413Z,2.70
2022-11-23T09:54:31.147Z,2.70
2022-11-23T09:55:26.559Z,2.70
2022-11-23T09:56:22.455Z,2.80
2022-11-23T09:57:17.373Z,2.90
2022-11-23T09:58:14.200Z,3.00
2022-11-23T09:59:09.808Z,2.90
2022-11-23T10:00:05.320Z,2.20
2022-11-23T10:01:00.649Z,2.90
2022-11-23T10:01:56.643Z,2.90
2022-11-23T10:02:51.908Z,2.20
2022-11-23T10:03:49.346Z,3.20
2022-11-23T10:04:43.594Z,2.50
2022-11-23T10:05:39.197Z,4.20
2022-11-23T10:06:34.777Z,3.10
2022-11-23T10:07:30.353Z,2.30
2022-11-23T10:08:25.687Z,6.40
2022-11-23T10:09:21.535Z,6.70
2022-11-23T10:10:16.971Z,3.90
2022-11-23T10:11:12.710Z,4.30
2022-11-23T10:12:08.328Z,3.10
2022-11-23T10:13:03.621Z,6.00
2022-11-23T10:13:59.498Z,3.20
2022-11-23T10:14:54.882Z,2.50
2022-11-23T10:15:50.438Z,2.30
2022-11-23T10:16:45.721Z,3.30
2022-11-23T10:17:41.173Z,2.50
2022-11-23T10:18:37.685Z,3.10
2022-11-23T10:19:34.517Z,4.00
2022-11-23T10:20:30.209Z,2.20
2022-11-23T10:21:25.403Z,3.00
2022-11-23T10:22:21.142Z,2.40
2022-11-23T10:23:16.592Z,6.20
2022-11-23T10:24:12.329Z,3.80
2022-11-23T10:25:08.104Z,4.30
2022-11-23T10:26:03.242Z,3.80
2022-11-23T10:26:59.261Z,5.40
2022-11-23T10:27:54.661Z,7.70
2022-11-23T10:28:50.110Z,4.90
2022-11-23T10:29:46.570Z,3.00
2022-11-23T10:30:41.934Z,5.20
2022-11-23T10:31:37.901Z,2.80
2022-11-23T10:32:33.186Z,2.60
2022-11-23T10:33:28.584Z,2.80
2022-11-23T10:34:24.578Z,3.40
2022-11-23T10:35:20.006Z,3.00
2022-11-23T10:36:15.746Z,3.80
2022-11-23T10:37:11.077Z,1.90
2022-11-23T10:38:06.533Z,3.80
2022-11-23T10:39:02.396Z,5.40
2022-11-23T10:39:57.726Z,3.50
2022-11-23T10:40:53.486Z,3.50
2022-11-23T10:41:49.523Z,4.20
2022-11-23T10:42:45.091Z,1.70
2022-11-23T10:43:40.824Z,2.40
2022-11-23T10:44:36.409Z,3.00
2022-11-23T10:45:31.853Z,2.30
2022-11-23T10:46:27.691Z,2.80
2022-11-23T10:47:22.987Z,3.80
2022-11-23T10:48:18.852Z,5.50
2022-11-23T10:49:14.225Z,3.60
2022-11-23T10:50:09.571Z,3.90
2022-11-23T10:51:05.370Z,2.70
2022-11-23T10:52:00.915Z,4.90
2022-11-23T10:52:56.184Z,3.90
2022-11-23T10:53:52.700Z,3.50
2022-11-23T10:54:48.130Z,5.80
2022-11-23T10:55:44.115Z,4.80
2022-11-23T10:56:39.442Z,3.10
2022-11-23T10:57:34.879Z,1.40
2022-11-23T10:58:30.618Z,2.80
2022-11-23T10:59:26.146Z,3.20
2022-11-23T11:00:25.798Z,5.60
2022-11-23T11:01:18.584Z,3.50
2022-11-23T11:02:13.432Z,3.30
2022-11-23T11:03:08.910Z,2.00
2022-11-23T11:04:04.649Z,5.00
2022-11-23T11:05:00.065Z,4.00
2022-11-23T11:06:11.264Z,3.70
2022-11-23T11:06:51.099Z,3.60
2022-11-23T11:07:45.390Z,2.30
2022-11-23T11:08:40.841Z,3.80
2022-11-23T11:09:37.291Z,2.70
2022-11-23T11:10:32.621Z,2.90
2022-11-23T11:11:28.071Z,2.80
2022-11-23T11:12:24.381Z,4.30
2022-11-23T11:13:19.841Z,5.00
2022-11-23T11:14:15.528Z,4.50
2022-11-23T11:15:12.263Z,4.10
2022-11-23T11:16:06.508Z,4.30
2022-11-23T11:17:01.486Z,3.70
2022-11-23T11:17:56.532Z,5.30
2022-11-23T11:18:55.313Z,3.40
2022-11-23T11:19:50.958Z,2.70
2022-11-23T11:20:46.368Z,3.90
2022-11-23T11:21:41.646Z,6.50
2022-11-23T11:22:37.112Z,3.00
2022-11-23T11:23:33.202Z,3.10
2022-11-23T11:24:28.651Z,1.90
2022-11-23T11:25:24.339Z,1.90
2022-11-23T11:26:20.183Z,3.40
2022-11-23T11:27:15.620Z,5.10
2022-11-23T11:28:11.090Z,1.40
2022-11-23T11:29:06.930Z,3.00
2022-11-23T11:30:02.262Z,3.20
2022-11-23T11:30:57.679Z,8.00
2022-11-23T11:31:54.407Z,2.60
2022-11-23T11:32:49.961Z,2.30
2022-11-23T11:33:45.699Z,3.90
2022-11-23T11:34:41.148Z,2.70
2022-11-23T11:35:36.799Z,4.90
2022-11-23T11:36:32.564Z,4.10
2022-11-23T11:37:28.056Z,3.20
2022-11-23T11:38:23.856Z,4.00
2022-11-23T11:39:19.857Z,3.30
2022-11-23T11:40:15.007Z,2.10
2022-11-23T11:41:10.678Z,4.60
2022-11-23T11:42:06.197Z,3.80
2022-11-23T11:43:01.892Z,5.90
2022-11-23T11:43:57.917Z,5.80
2022-11-23T11:44:53.456Z,5.60
2022-11-23T11:46:21.379Z,3.00
2022-11-23T11:46:45.759Z,4.90
2022-11-23T11:47:40.143Z,4.10
2022-11-23T11:48:36.762Z,3.30
2022-11-23T11:49:32.310Z,3.50
2022-11-23T11:50:31.592Z,2.50
2022-11-23T11:51:23.721Z,4.10
2022-11-23T11:52:19.424Z,4.70
2022-11-23T11:53:14.943Z,3.60
2022-11-23T11:54:10.655Z,3.10
2022-11-23T11:55:06.134Z,3.50
2022-11-23T11:56:01.840Z,5.80
2022-11-23T11:56:57.477Z,3.60
2022-11-23T11:57:52.922Z,4.90
2022-11-23T11:58:48.341Z,2.10
2022-11-23T11:59:44.796Z,3.40
2022-11-23T12:00:44.803Z,4.20
2022-11-23T12:01:36.979Z,3.80
2022-11-23T12:02:31.265Z,3.50
2022-11-23T12:03:26.779Z,3.30
2022-11-23T12:04:22.520Z,3.80
2022-11-23T12:05:17.960Z,4.90
2022-11-23T12:06:13.903Z,4.80
2022-11-23T12:07:09.175Z,4.60
2022-11-23T12:08:04.484Z,8.60
2022-11-23T12:09:00.377Z,3.60
2022-11-23T12:09:55.797Z,4.70
2022-11-23T12:10:51.233Z,5.40
2022-11-23T12:11:46.946Z,3.60
2022-11-23T12:12:42.526Z,6.20